createdAt,value
2022-11-14T00:01:47.684Z,34.00
2022-11-14T00:04:14.867Z,35.13
2022-11-14T00:06:41.954Z,33.43
2022-11-14T00:09:29.830Z,35.30
2022-11-14T00:11:57.055Z,35.77
2022-11-14T00:14:24.855Z,32.77
2022-11-14T00:16:51.926Z,36.80
2022-11-14T00:19:19.074Z,34.27
2022-11-14T00:21:46.473Z,33.83
2022-11-14T00:24:13.867Z,35.23
2022-11-14T00:26:41.166Z,34.60
2022-11-14T00:29:12.611Z,36.40
2022-11-14T00:31:48.203Z,36.37
2022-11-14T00:34:15.546Z,34.67
2022-11-14T00:36:42.609Z,35.13
2022-11-14T00:39:17.638Z,34.13
2022-11-14T00:41:47.137Z,35.53
2022-11-14T00:44:19.430Z,34.10
2022-11-14T00:46:50.045Z,35.10
2022-11-14T00:49:20.166Z,36.00
2022-11-14T00:51:57.872Z,33.37
2022-11-14T00:54:28.346Z,37.53
2022-11-14T00:56:57.994Z,38.30
2022-11-14T00:59:25.328Z,37.57
2022-11-14T01:01:58.289Z,37.20
2022-11-14T01:04:28.371Z,37.90
2022-11-14T01:07:07.846Z,39.57
2022-11-14T01:09:34.886Z,38.60
2022-11-14T01:12:07.890Z,36.60
2022-11-14T01:14:42.888Z,36.77
2022-11-14T01:17:10.214Z,39.33
2022-11-14T01:19:41.097Z,36.60
2022-11-14T01:22:08.548Z,40.47
2022-11-14T01:24:36.383Z,38.00
2022-11-14T01:27:03.792Z,37.73
2022-11-14T01:29:30.909Z,39.87
2022-11-14T01:32:08.231Z,42.73
2022-11-14T01:34:35.253Z,39.57
2022-11-14T01:37:02.306Z,40.27
2022-11-14T01:39:29.352Z,41.17
2022-11-14T01:41:56.653Z,39.40
2022-11-14T01:44:52.877Z,39.87
2022-11-14T01:47:30.437Z,39.20
2022-11-14T01:50:05.553Z,40.43
2022-11-14T01:52:49.588Z,40.60
2022-11-14T01:55:17.112Z,41.40
2022-11-14T01:58:06.879Z,42.33
2022-11-14T02:00:34.235Z,40.67
2022-11-14T02:03:01.800Z,39.07
2022-11-14T02:05:30.030Z,40.10
2022-11-14T02:07:57.919Z,40.60
2022-11-14T02:10:25.359Z,42.57
2022-11-14T02:12:55.119Z,39.60
2022-11-14T02:15:28.043Z,41.23
2022-11-14T02:17:55.430Z,39.80
2022-11-14T02:20:32.890Z,39.73
2022-11-14T02:23:00.094Z,39.20
2022-11-14T02:25:32.734Z,39.90
2022-11-14T02:28:01.167Z,37.37
2022-11-14T02:30:28.430Z,37.80
2022-11-14T02:33:11.817Z,40.07
2022-11-14T02:35:39.320Z,40.87
2022-11-14T02:38:07.014Z,39.53
2022-11-14T02:40:37.691Z,39.97
2022-11-14T02:43:05.426Z,39.33
2022-11-14T02:45:32.582Z,39.17
2022-11-14T02:48:02.164Z,37.73
2022-11-14T02:50:51.403Z,39.37
2022-11-14T02:53:30.972Z,37.10
2022-11-14T02:55:58.148Z,36.87
2022-11-14T02:58:31.164Z,36.90
2022-11-14T03:01:20.345Z,36.70
2022-11-14T03:03:55.216Z,39.23
2022-11-14T03:06:22.590Z,36.27
2022-11-14T03:08:49.913Z,37.43
2022-11-14T03:11:25.533Z,39.03
2022-11-14T03:13:55.928Z,38.30
2022-11-14T03:16:32.011Z,39.63
2022-11-14T03:18:59.277Z,40.60
2022-11-14T03:21:27.039Z,43.43
2022-11-14T03:24:14.823Z,40.90
2022-11-14T03:26:47.600Z,42.33
2022-11-14T03:29:14.724Z,38.70
2022-11-14T03:31:41.931Z,40.37
2022-11-14T03:34:10.863Z,37.03
2022-11-14T03:36:41.194Z,39.97
2022-11-14T03:39:09.241Z,42.00
2022-11-14T03:41:36.350Z,42.47
2022-11-14T03:44:03.826Z,42.40
2022-11-14T03:46:30.839Z,42.60
2022-11-14T03:49:02.457Z,40.70
2022-11-14T03:51:29.913Z,40.87
2022-11-14T03:53:56.991Z,40.87
2022-11-14T03:56:24.315Z,39.00
2022-11-14T03:58:51.653Z,41.23
2022-11-14T04:01:21.639Z,40.80
2022-11-14T04:03:48.928Z,41.40
2022-11-14T04:06:17.993Z,40.93
2022-11-14T04:08:45.216Z,40.70
2022-11-14T04:11:15.173Z,42.87
2022-11-14T04:13:42.571Z,40.87
2022-11-14T04:16:09.605Z,42.37
2022-11-14T04:18:36.625Z,43.60
2022-11-14T04:21:04.430Z,37.70
2022-11-14T04:23:31.489Z,40.97
2022-11-14T04:25:58.519Z,41.60
2022-11-14T04:28:25.889Z,42.03
2022-11-14T04:30:54.025Z,38.43
2022-11-14T04:33:21.053Z,39.97
2022-11-14T04:35:48.719Z,41.73
2022-11-14T04:38:15.708Z,40.57
2022-11-14T04:40:53.612Z,41.50
2022-11-14T04:43:21.716Z,38.57
2022-11-14T04:45:48.775Z,38.63
2022-11-14T04:48:15.902Z,42.13
2022-11-14T04:50:42.936Z,41.10
2022-11-14T04:53:10.050Z,44.20
2022-11-14T04:55:37.087Z,43.67
2022-11-14T04:58:04.154Z,39.83
2022-11-14T05:00:32.450Z,40.27
2022-11-14T05:03:00.190Z,43.40
2022-11-14T05:05:27.607Z,41.50
2022-11-14T05:07:55.347Z,42.97
2022-11-14T05:10:25.320Z,36.80
2022-11-14T05:12:58.450Z,39.37
2022-11-14T05:15:26.174Z,41.97
2022-11-14T05:17:56.044Z,35.73
2022-11-14T05:20:23.357Z,41.30
2022-11-14T05:22:58.377Z,40.97
2022-11-14T05:25:29.119Z,41.00
2022-11-14T05:28:01.922Z,38.27
2022-11-14T05:30:28.888Z,40.23
2022-11-14T05:32:58.363Z,44.07
2022-11-14T05:35:25.468Z,41.57
2022-11-14T05:37:58.791Z,40.97
2022-11-14T05:40:37.750Z,37.40
2022-11-14T05:43:23.896Z,37.20
2022-11-14T05:45:51.646Z,40.47
2022-11-14T05:48:18.928Z,42.23
2022-11-14T05:50:46.144Z,37.33
2022-11-14T05:53:13.419Z,38.77
2022-11-14T05:55:45.026Z,37.80
2022-11-14T05:58:12.562Z,36.43
2022-11-14T06:00:46.577Z,39.30
2022-11-14T06:03:18.237Z,35.53
2022-11-14T06:05:45.376Z,39.83
2022-11-14T06:08:13.616Z,34.53
2022-11-14T06:10:44.493Z,37.10
2022-11-14T06:13:11.494Z,39.97
2022-11-14T06:15:38.760Z,36.60
2022-11-14T06:18:06.050Z,37.30
2022-11-14T06:20:33.145Z,37.17
2022-11-14T06:23:03.161Z,35.87
2022-11-14T06:25:30.462Z,39.57
2022-11-14T06:27:59.581Z,37.03
2022-11-14T06:30:27.257Z,34.70
2022-11-14T06:33:08.693Z,36.83
2022-11-14T06:35:37.097Z,34.93
2022-11-14T06:38:52.268Z,37.70
2022-11-14T06:41:22.756Z,35.33
2022-11-14T06:43:54.135Z,36.87
2022-11-14T06:46:24.259Z,34.77
2022-11-14T06:48:52.592Z,37.00
2022-11-14T06:51:22.511Z,37.23
2022-11-14T06:53:49.520Z,36.70
2022-11-14T06:56:20.639Z,36.00
2022-11-14T06:58:50.206Z,38.20
2022-11-14T07:01:26.019Z,36.33
2022-11-14T07:04:05.454Z,36.77
2022-11-14T07:06:40.203Z,36.07
2022-11-14T07:09:07.304Z,33.67
2022-11-14T07:11:38.613Z,34.97
2022-11-14T07:14:06.800Z,37.83
2022-11-14T07:16:35.830Z,32.20
2022-11-14T07:19:09.050Z,33.80
2022-11-14T07:21:37.542Z,34.63
2022-11-14T07:24:08.161Z,33.17
2022-11-14T07:26:35.276Z,34.27
2022-11-14T07:29:03.448Z,35.17
2022-11-14T07:31:35.027Z,33.70
2022-11-14T07:34:02.168Z,33.27
2022-11-14T07:36:29.254Z,33.37
2022-11-14T07:38:56.480Z,33.67
2022-11-14T07:41:26.434Z,33.00
2022-11-14T07:43:53.845Z,34.20
2022-11-14T07:46:29.271Z,33.20
2022-11-14T07:48:56.233Z,36.50
2022-11-14T07:51:23.272Z,33.60
2022-11-14T07:53:55.736Z,33.50
2022-11-14T07:56:25.849Z,34.10
2022-11-14T07:58:52.884Z,32.57
2022-11-14T08:01:20.050Z,35.00
2022-11-14T08:03:47.083Z,34.80
2022-11-14T08:06:18.825Z,32.00
2022-11-14T08:08:48.597Z,32.97
2022-11-14T08:11:31.776Z,32.27
2022-11-14T08:14:02.218Z,32.30
2022-11-14T08:16:29.262Z,33.70
2022-11-14T08:18:56.245Z,32.63
2022-11-14T08:21:23.535Z,33.03
2022-11-14T08:23:50.621Z,30.90
2022-11-14T08:26:17.745Z,32.93
2022-11-14T08:28:45.953Z,33.00
2022-11-14T08:31:13.682Z,34.70
2022-11-14T08:33:40.843Z,33.03
2022-11-14T08:36:08.440Z,32.63
2022-11-14T08:38:35.842Z,31.07
2022-11-14T08:41:04.062Z,31.10
2022-11-14T08:43:34.083Z,32.63
2022-11-14T08:46:04.528Z,32.57
2022-11-14T08:48:33.569Z,32.97
2022-11-14T08:51:07.745Z,32.30
2022-11-14T08:53:35.457Z,29.47
2022-11-14T08:56:03.038Z,32.50
2022-11-14T08:58:32.630Z,31.17
2022-11-14T09:01:07.177Z,30.40
2022-11-14T09:03:34.949Z,29.17
2022-11-14T09:06:03.697Z,29.57
2022-11-14T09:08:33.977Z,31.63
2022-11-14T09:11:05.592Z,30.73
2022-11-14T09:13:35.162Z,30.40
2022-11-14T09:16:02.915Z,29.30
2022-11-14T09:18:31.876Z,29.83
2022-11-14T09:21:09.193Z,28.93
2022-11-14T09:23:36.862Z,28.77
2022-11-14T09:26:09.805Z,29.40
2022-11-14T09:28:37.796Z,29.40
2022-11-14T09:31:09.979Z,28.23
2022-11-14T09:33:40.376Z,28.13
2022-11-14T09:36:11.247Z,28.07
2022-11-14T09:38:38.933Z,27.30
2022-11-14T09:41:08.681Z,27.93
2022-11-14T09:44:39.004Z,30.43
2022-11-14T09:47:20.526Z,27.73
2022-11-14T09:49:54.848Z,28.17
2022-11-14T09:52:58.900Z,26.60
2022-11-14T09:55:37.218Z,27.20
2022-11-14T09:58:05.454Z,26.07
2022-11-14T10:00:56.798Z,26.80
2022-11-14T10:03:58.896Z,27.50
2022-11-14T10:06:30.483Z,25.60
2022-11-14T10:09:44.668Z,26.23
2022-11-14T10:12:23.695Z,27.47
2022-11-14T10:15:15.150Z,27.37
2022-11-14T10:18:33.369Z,28.57
2022-11-14T10:21:32.986Z,25.53
2022-11-14T10:24:45.993Z,26.07
2022-11-14T10:27:58.497Z,24.83
2022-11-14T10:31:10.114Z,25.23
2022-11-14T10:34:26.407Z,25.50
2022-11-14T10:37:33.281Z,24.60
2022-11-14T10:40:33.747Z,26.00
2022-11-14T10:43:35.361Z,24.83
2022-11-14T10:46:32.843Z,24.40
2022-11-14T10:49:13.871Z,26.37
2022-11-14T10:51:46.831Z,25.33
2022-11-14T10:54:32.960Z,24.83
2022-11-14T10:57:00.065Z,24.23
2022-11-14T10:59:29.611Z,24.57
2022-11-14T11:01:58.741Z,25.87
2022-11-14T11:04:43.669Z,25.70
2022-11-14T11:07:30.596Z,26.80
2022-11-14T11:10:21.069Z,25.40
2022-11-14T11:12:52.685Z,24.20
2022-11-14T11:15:26.312Z,25.00
2022-11-14T11:18:05.070Z,24.17
2022-11-14T11:20:38.501Z,25.63
2022-11-14T11:23:11.502Z,24.97
2022-11-14T11:25:40.518Z,24.57
2022-11-14T11:28:21.569Z,24.70
2022-11-14T11:31:07.639Z,24.67
2022-11-14T11:33:38.193Z,23.33
2022-11-14T11:36:18.157Z,24.90
2022-11-14T11:38:47.595Z,22.20
2022-11-14T11:42:07.685Z,23.43
2022-11-14T11:44:18.778Z,25.03
2022-11-14T11:47:01.120Z,26.27
2022-11-14T11:49:52.014Z,24.70
2022-11-14T11:53:19.554Z,22.70
2022-11-14T11:55:59.257Z,23.60
2022-11-14T11:58:49.820Z,24.53
2022-11-14T12:01:17.881Z,22.40
2022-11-14T12:03:54.197Z,23.87
2022-11-14T12:06:27.196Z,24.23
2022-11-14T12:10:03.510Z,23.57
2022-11-14T12:12:42.972Z,22.53
2022-11-14T12:15:51.406Z,23.77
2022-11-14T12:18:49.070Z,23.20
2022-11-14T12:21:46.844Z,23.00
2022-11-14T12:25:38.209Z,23.53
2022-11-14T12:28:40.561Z,21.57
2022-11-14T12:31:16.912Z,21.67
2022-11-14T12:34:04.066Z,21.67
2022-11-14T12:36:34.952Z,22.57
2022-11-14T12:39:03.280Z,21.07
2022-11-14T12:41:39.006Z,20.43
2022-11-14T12:44:26.928Z,22.17
2022-11-14T12:47:06.223Z,22.60
2022-11-14T12:49:48.289Z,20.80
2022-11-14T12:52:52.736Z,21.50
2022-11-14T12:55:31.607Z,20.37
2022-11-14T12:58:42.755Z,20.93
2022-11-14T13:01:31.936Z,19.03
2022-11-14T13:05:04.280Z,20.00
2022-11-14T13:08:31.186Z,19.70
2022-11-14T13:10:58.698Z,19.60
2022-11-14T13:13:44.703Z,20.43
2022-11-14T13:16:51.091Z,20.23
2022-11-14T13:19:40.788Z,18.87
2022-11-14T13:22:37.350Z,19.63
2022-11-14T13:25:20.759Z,19.13
2022-11-14T13:31:16.898Z,20.23
2022-11-14T13:34:38.889Z,18.87
2022-11-14T13:37:59.903Z,18.57
2022-11-14T13:40:44.468Z,18.63
2022-11-14T13:43:42.685Z,18.93
2022-11-14T13:47:07.475Z,19.57
2022-11-14T13:50:13.865Z,18.27
2022-11-14T13:52:48.915Z,20.43
2022-11-14T13:55:50.075Z,19.20
2022-11-14T13:59:03.228Z,19.53
2022-11-14T14:01:30.115Z,19.67
2022-11-14T14:04:49.270Z,17.10
2022-11-14T14:07:37.508Z,19.57
2022-11-14T14:10:41.568Z,18.27
2022-11-14T14:14:03.666Z,18.93
2022-11-14T14:16:49.958Z,20.60
2022-11-14T14:20:19.732Z,18.77
2022-11-14T14:23:11.053Z,17.90
2022-11-14T14:26:27.545Z,19.27
2022-11-14T14:29:58.188Z,19.73
2022-11-14T14:32:25.563Z,19.47
2022-11-14T14:34:56.939Z,20.70
2022-11-14T14:37:28.697Z,19.20
2022-11-14T14:40:22.359Z,21.50
2022-11-14T14:42:49.404Z,20.60
2022-11-14T14:45:24.057Z,20.50
2022-11-14T14:48:15.652Z,21.17
2022-11-14T14:50:58.715Z,19.37
2022-11-14T14:53:35.802Z,20.53
2022-11-14T14:56:16.997Z,21.30
2022-11-14T14:58:44.360Z,22.33
2022-11-14T15:01:23.313Z,19.73
2022-11-14T15:04:07.850Z,20.97
2022-11-14T15:06:39.268Z,20.37
2022-11-14T15:09:28.042Z,22.23
2022-11-14T15:11:59.018Z,22.43
2022-11-14T15:14:36.945Z,21.57
2022-11-14T15:17:05.055Z,21.63
2022-11-14T15:19:45.013Z,19.33
2022-11-14T15:22:14.605Z,21.90
2022-11-14T15:24:42.181Z,19.70
2022-11-14T15:27:19.981Z,21.83
2022-11-14T15:30:07.525Z,22.73
2022-11-14T15:33:34.211Z,20.17
2022-11-14T15:36:27.321Z,21.10
2022-11-14T15:39:29.389Z,21.83
2022-11-14T15:42:21.013Z,23.57
2022-11-14T15:44:54.569Z,22.27
2022-11-14T15:47:50.349Z,23.70
2022-11-14T15:50:37.579Z,21.30
2022-11-14T15:53:27.805Z,21.73
2022-11-14T15:55:54.985Z,21.33
2022-11-14T15:58:28.346Z,22.37
2022-11-14T16:00:56.632Z,22.07
2022-11-14T16:03:24.292Z,21.93
2022-11-14T16:05:51.253Z,21.17
2022-11-14T16:08:18.265Z,22.50
2022-11-14T16:10:45.533Z,24.50
2022-11-14T16:13:12.658Z,20.90
2022-11-14T16:15:39.779Z,22.27
2022-11-14T16:18:07.201Z,21.83
2022-11-14T16:20:37.899Z,24.93
2022-11-14T16:23:05.402Z,23.40
2022-11-14T16:25:33.013Z,25.03
2022-11-14T16:27:59.993Z,25.20
2022-11-14T16:30:28.403Z,25.07
2022-11-14T16:32:55.375Z,24.80
2022-11-14T16:35:26.690Z,24.50
2022-11-14T16:37:56.641Z,23.33
2022-11-14T16:40:27.757Z,22.33
2022-11-14T16:42:57.690Z,22.90
2022-11-14T16:45:26.613Z,22.63
2022-11-14T16:47:53.744Z,20.90
2022-11-14T16:50:20.838Z,23.70
2022-11-14T16:52:47.932Z,23.97
2022-11-14T16:55:15.060Z,25.00
2022-11-14T16:57:42.154Z,25.87
2022-11-14T17:00:14.556Z,25.27
2022-11-14T17:02:42.044Z,24.80
2022-11-14T17:05:09.718Z,22.27
2022-11-14T17:07:36.945Z,24.73
2022-11-14T17:10:06.198Z,25.60
2022-11-14T17:12:36.753Z,23.83
2022-11-14T17:15:04.147Z,24.57
2022-11-14T17:17:31.496Z,23.57
2022-11-14T17:19:58.662Z,23.80
2022-11-14T17:22:25.702Z,23.90
2022-11-14T17:24:52.657Z,24.70
2022-11-14T17:27:19.898Z,24.63
2022-11-14T17:29:46.917Z,24.63
2022-11-14T17:32:13.891Z,23.23
2022-11-14T17:34:40.927Z,23.93
2022-11-14T17:37:07.955Z,22.43
2022-11-14T17:39:35.097Z,26.07
2022-11-14T17:42:02.140Z,23.87
2022-11-14T17:44:29.104Z,26.23
2022-11-14T17:46:56.076Z,25.13
2022-11-14T17:49:23.060Z,25.67
2022-11-14T17:51:50.112Z,24.43
2022-11-14T17:54:17.090Z,25.33
2022-11-14T17:56:48.517Z,23.77
2022-11-14T17:59:16.879Z,24.83
2022-11-14T18:01:43.953Z,24.63
2022-11-14T18:04:12.017Z,25.40
2022-11-14T18:06:38.967Z,26.30
2022-11-14T18:09:08.125Z,25.17
2022-11-14T18:11:38.410Z,25.37
2022-11-14T18:14:05.416Z,23.90
2022-11-14T18:16:57.451Z,26.07
2022-11-14T18:19:19.388Z,26.70
2022-11-14T18:21:52.043Z,24.40
2022-11-14T18:24:21.519Z,26.27
2022-11-14T18:26:48.501Z,27.47
2022-11-14T18:29:15.717Z,27.43
2022-11-14T18:31:42.726Z,24.67
2022-11-14T18:34:09.732Z,26.53
2022-11-14T18:36:37.065Z,27.03
2022-11-14T18:39:04.231Z,26.00
2022-11-14T18:41:31.290Z,25.33
2022-11-14T18:43:58.370Z,26.23
2022-11-14T18:46:26.579Z,24.47
2022-11-14T18:48:57.183Z,26.87
2022-11-14T18:51:29.793Z,24.20
2022-11-14T18:53:59.269Z,27.67
2022-11-14T18:56:26.944Z,27.57
2022-11-14T18:58:56.417Z,26.77
2022-11-14T19:01:29.277Z,24.53
2022-11-14T19:04:00.687Z,25.90
2022-11-14T19:06:29.602Z,27.83
2022-11-14T19:09:11.081Z,25.93
2022-11-14T19:11:57.613Z,26.87
2022-11-14T19:14:24.706Z,25.33
2022-11-14T19:16:51.679Z,29.07
2022-11-14T19:19:18.666Z,29.30
2022-11-14T19:21:50.379Z,31.60
2022-11-14T19:24:18.228Z,28.20
2022-11-14T19:26:45.609Z,30.77
2022-11-14T19:29:15.515Z,27.77
2022-11-14T19:31:43.366Z,26.37
2022-11-14T19:34:11.202Z,29.33
2022-11-14T19:36:58.695Z,27.93
2022-11-14T19:39:25.548Z,29.33
2022-11-14T19:41:52.591Z,29.50
2022-11-14T19:44:19.791Z,29.30
2022-11-14T19:46:48.055Z,28.63
2022-11-14T19:49:15.736Z,29.53
2022-11-14T19:51:43.004Z,28.57
2022-11-14T19:54:11.194Z,21.40
2022-11-14T19:56:38.321Z,25.10
2022-11-14T19:59:09.646Z,30.47
2022-11-14T20:01:41.993Z,24.47
2022-11-14T20:04:13.063Z,26.13
2022-11-14T20:06:41.551Z,25.90
2022-11-14T20:09:11.050Z,26.63
2022-11-14T20:11:38.485Z,31.30
2022-11-14T20:14:06.123Z,32.00
2022-11-14T20:16:36.566Z,29.60
2022-11-14T20:19:04.751Z,30.63
2022-11-14T20:21:34.346Z,27.37
2022-11-14T20:24:01.761Z,32.07
2022-11-14T20:26:28.839Z,25.73
2022-11-14T20:28:55.879Z,33.23
2022-11-14T20:31:28.085Z,36.47
2022-11-14T20:33:56.644Z,29.57
2022-11-14T20:36:31.936Z,28.37
2022-11-14T20:39:02.396Z,30.50
2022-11-14T20:41:29.451Z,25.50
2022-11-14T20:43:56.499Z,27.70
2022-11-14T20:46:23.551Z,31.60
2022-11-14T20:48:50.670Z,33.30
2022-11-14T20:51:24.743Z,30.07
2022-11-14T20:53:55.118Z,34.67
2022-11-14T20:56:23.308Z,29.67
2022-11-14T20:58:54.121Z,32.67
2022-11-14T21:01:21.474Z,32.33
2022-11-14T21:03:49.121Z,35.33
2022-11-14T21:06:17.001Z,34.57
2022-11-14T21:08:44.533Z,38.13
2022-11-14T21:11:17.999Z,32.63
2022-11-14T21:13:57.260Z,34.13
2022-11-14T21:16:38.597Z,36.80
2022-11-14T21:19:07.237Z,35.77
2022-11-14T21:21:37.382Z,34.50
2022-11-14T21:24:05.322Z,35.30
2022-11-14T21:26:38.123Z,26.60
2022-11-14T21:29:12.433Z,35.07
2022-11-14T21:31:45.841Z,34.73
2022-11-14T21:34:16.698Z,33.53
2022-11-14T21:36:46.107Z,32.40
2022-11-14T21:39:16.342Z,29.70
2022-11-14T21:41:45.596Z,30.70
2022-11-14T21:44:16.382Z,33.90
2022-11-14T21:46:47.024Z,33.27
2022-11-14T21:49:14.316Z,29.67
2022-11-14T21:51:41.432Z,25.63
2022-11-14T21:54:10.080Z,27.43
2022-11-14T21:56:37.550Z,30.90
2022-11-14T21:59:16.382Z,33.27
2022-11-14T22:02:07.713Z,27.30
2022-11-14T22:04:36.420Z,25.10
2022-11-14T22:07:07.107Z,34.13
2022-11-14T22:09:36.360Z,30.37
2022-11-14T22:12:07.543Z,32.93
2022-11-14T22:14:34.531Z,30.03
2022-11-14T22:17:01.503Z,32.70
2022-11-14T22:19:28.491Z,33.17
2022-11-14T22:21:55.551Z,25.50
2022-11-14T22:24:23.624Z,35.90
2022-11-14T22:26:50.628Z,28.20
2022-11-14T22:29:18.136Z,29.47
2022-11-14T22:31:45.178Z,29.03
2022-11-14T22:34:12.466Z,34.93
2022-11-14T22:36:39.488Z,33.10
2022-11-14T22:39:06.516Z,32.97
2022-11-14T22:41:33.946Z,31.20
2022-11-14T22:44:01.941Z,32.43
2022-11-14T22:46:29.749Z,27.97
2022-11-14T22:48:58.118Z,31.03
2022-11-14T22:51:28.049Z,30.27
2022-11-14T22:53:57.988Z,31.27
2022-11-14T22:56:29.318Z,31.37
2022-11-14T22:58:59.134Z,34.43
2022-11-14T23:01:32.556Z,31.40
2022-11-14T23:04:04.074Z,31.90
2022-11-14T23:06:33.995Z,31.77
2022-11-14T23:09:02.929Z,30.67
2022-11-14T23:11:33.146Z,30.93
2022-11-14T23:14:01.715Z,32.00
2022-11-14T23:16:33.477Z,27.27
2022-11-14T23:19:03.988Z,27.60
2022-11-14T23:21:35.880Z,34.67
2022-11-14T23:24:11.321Z,27.17
2022-11-14T23:26:38.280Z,32.73
2022-11-14T23:29:05.297Z,32.43
2022-11-14T23:31:32.323Z,28.47
2022-11-14T23:33:59.287Z,31.60
2022-11-14T23:36:26.299Z,35.77
2022-11-14T23:38:53.936Z,31.40
2022-11-14T23:41:27.279Z,30.77
2022-11-14T23:43:54.228Z,36.80
2022-11-14T23:46:21.526Z,32.37
2022-11-14T23:48:48.742Z,28.53
2022-11-14T23:51:15.842Z,32.00
2022-11-14T23:53:43.179Z,29.33
2022-11-14T23:56:13.615Z,28.53
2022-11-14T23:58:41.577Z,32.77
